sensor_id;sensor_type;location;lat;lon;timestamp;P1;durP1;ratioP1;P2;durP2;ratioP2
18574;SDS011;9417;16.484;102.872;2022-10-26T00:01:06;14.63;;;9.75;;
18574;SDS011;9417;16.484;102.872;2022-10-26T00:03:14;12.32;;;9.98;;
18574;SDS011;9417;16.484;102.872;2022-10-26T00:05:21;10.55;;;8.98;;
18574;SDS011;9417;16.484;102.872;2022-10-26T00:07:28;11.13;;;9.18;;
18574;SDS011;9417;16.484;102.872;2022-10-26T00:09:35;11.82;;;8.30;;
18574;SDS011;9417;16.484;102.872;2022-10-26T00:11:42;12.75;;;8.73;;
18574;SDS011;9417;16.484;102.872;2022-10-26T00:13:48;12.10;;;9.10;;
18574;SDS011;9417;16.484;102.872;2022-10-26T00:15:55;12.43;;;9.25;;
18574;SDS011;9417;16.484;102.872;2022-10-26T00:20:14;12.50;;;9.38;;
18574;SDS011;9417;16.484;102.872;2022-10-26T00:22:21;11.85;;;8.80;;
18574;SDS011;9417;16.484;102.872;2022-10-26T00:24:27;16.98;;;8.95;;
18574;SDS011;9417;16.484;102.872;2022-10-26T00:26:34;11.20;;;8.43;;
18574;SDS011;9417;16.484;102.872;2022-10-26T00:28:40;14.52;;;9.43;;
18574;SDS011;9417;16.484;102.872;2022-10-26T00:30:47;9.80;;;7.22;;
18574;SDS011;9417;16.484;102.872;2022-10-26T00:32:53;9.40;;;5.65;;
18574;SDS011;9417;16.484;102.872;2022-10-26T00:35:02;6.40;;;4.45;;
18574;SDS011;9417;16.484;102.872;2022-10-26T00:37:25;7.15;;;4.50;;
18574;SDS011;9417;16.484;102.872;2022-10-26T00:39:32;5.25;;;4.03;;
18574;SDS011;9417;16.484;102.872;2022-10-26T00:41:39;6.03;;;4.18;;
18574;SDS011;9417;16.484;102.872;2022-10-26T00:43:45;7.18;;;4.55;;
18574;SDS011;9417;16.484;102.872;2022-10-26T00:45:52;5.50;;;3.70;;
18574;SDS011;9417;16.484;102.872;2022-10-26T00:48:02;7.03;;;4.22;;
18574;SDS011;9417;16.484;102.872;2022-10-26T00:50:14;5.65;;;4.15;;
18574;SDS011;9417;16.484;102.872;2022-10-26T00:52:24;6.78;;;4.18;;
18574;SDS011;9417;16.484;102.872;2022-10-26T00:54:33;4.28;;;3.40;;
18574;SDS011;9417;16.484;102.872;2022-10-26T00:56:40;4.40;;;3.45;;
18574;SDS011;9417;16.484;102.872;2022-10-26T00:58:46;6.32;;;3.90;;
18574;SDS011;9417;16.484;102.872;2022-10-26T01:00:54;4.07;;;3.33;;
18574;SDS011;9417;16.484;102.872;2022-10-26T01:03:01;5.32;;;3.97;;
18574;SDS011;9417;16.484;102.872;2022-10-26T01:05:10;5.35;;;3.17;;
18574;SDS011;9417;16.484;102.872;2022-10-26T01:07:20;4.72;;;2.45;;
18574;SDS011;9417;16.484;102.872;2022-10-26T01:09:27;3.53;;;2.47;;
18574;SDS011;9417;16.484;102.872;2022-10-26T01:11:33;4.25;;;2.63;;
18574;SDS011;9417;16.484;102.872;2022-10-26T01:13:40;4.13;;;2.88;;
18574;SDS011;9417;16.484;102.872;2022-10-26T01:15:50;2.80;;;2.22;;
18574;SDS011;9417;16.484;102.872;2022-10-26T01:18:03;4.63;;;2.25;;
18574;SDS011;9417;16.484;102.872;2022-10-26T01:22:59;4.82;;;2.80;;
18574;SDS011;9417;16.484;102.872;2022-10-26T01:25:13;4.18;;;3.17;;
18574;SDS011;9417;16.484;102.872;2022-10-26T01:27:32;4.95;;;2.13;;
18574;SDS011;9417;16.484;102.872;2022-10-26T01:29:48;3.17;;;2.20;;
18574;SDS011;9417;16.484;102.872;2022-10-26T01:32:09;3.47;;;2.40;;
18574;SDS011;9417;16.484;102.872;2022-10-26T01:34:19;3.38;;;2.30;;
18574;SDS011;9417;16.484;102.872;2022-10-26T01:36:30;3.00;;;2.35;;
18574;SDS011;9417;16.484;102.872;2022-10-26T01:38:44;5.47;;;3.42;;
18574;SDS011;9417;16.484;102.872;2022-10-26T01:40:58;3.80;;;2.47;;
18574;SDS011;9417;16.484;102.872;2022-10-26T01:43:10;3.83;;;2.42;;
18574;SDS011;9417;16.484;102.872;2022-10-26T01:45:20;3.65;;;2.22;;
18574;SDS011;9417;16.484;102.872;2022-10-26T01:47:28;4.45;;;2.55;;
18574;SDS011;9417;16.484;102.872;2022-10-26T01:49:38;5.10;;;2.50;;
18574;SDS011;9417;16.484;102.872;2022-10-26T01:51:47;4.65;;;3.05;;
18574;SDS011;9417;16.484;102.872;2022-10-26T01:53:56;4.88;;;2.70;;
18574;SDS011;9417;16.484;102.872;2022-10-26T01:56:03;5.28;;;3.33;;
18574;SDS011;9417;16.484;102.872;2022-10-26T01:58:26;4.78;;;2.70;;
18574;SDS011;9417;16.484;102.872;2022-10-26T02:00:48;5.60;;;2.92;;
18574;SDS011;9417;16.484;102.872;2022-10-26T02:03:06;5.47;;;3.25;;
18574;SDS011;9417;16.484;102.872;2022-10-26T02:05:25;3.72;;;2.65;;
18574;SDS011;9417;16.484;102.872;2022-10-26T02:07:53;3.72;;;2.50;;
18574;SDS011;9417;16.484;102.872;2022-10-26T02:10:08;4.05;;;2.60;;
18574;SDS011;9417;16.484;102.872;2022-10-26T02:12:28;3.67;;;2.38;;
18574;SDS011;9417;16.484;102.872;2022-10-26T02:14:43;5.00;;;2.80;;
18574;SDS011;9417;16.484;102.872;2022-10-26T02:16:55;5.05;;;2.85;;
18574;SDS011;9417;16.484;102.872;2022-10-26T02:19:06;4.40;;;2.38;;
18574;SDS011;9417;16.484;102.872;2022-10-26T02:21:23;4.55;;;2.72;;
18574;SDS011;9417;16.484;102.872;2022-10-26T02:23:34;3.70;;;2.20;;
18574;SDS011;9417;16.484;102.872;2022-10-26T02:25:44;3.22;;;2.03;;
18574;SDS011;9417;16.484;102.872;2022-10-26T02:27:55;3.20;;;2.25;;
18574;SDS011;9417;16.484;102.872;2022-10-26T02:30:06;3.72;;;2.40;;
18574;SDS011;9417;16.484;102.872;2022-10-26T02:32:14;3.78;;;2.53;;
18574;SDS011;9417;16.484;102.872;2022-10-26T02:34:24;3.10;;;1.85;;
18574;SDS011;9417;16.484;102.872;2022-10-26T02:36:33;3.88;;;1.70;;
18574;SDS011;9417;16.484;102.872;2022-10-26T02:38:43;4.60;;;1.65;;
18574;SDS011;9417;16.484;102.872;2022-10-26T02:40:51;2.97;;;1.40;;
18574;SDS011;9417;16.484;102.872;2022-10-26T02:43:01;3.33;;;1.50;;
18574;SDS011;9417;16.484;102.872;2022-10-26T02:45:11;2.00;;;1.38;;
18574;SDS011;9417;16.484;102.872;2022-10-26T02:47:21;3.10;;;1.35;;
18574;SDS011;9417;16.484;102.872;2022-10-26T02:49:30;3.75;;;1.30;;
18574;SDS011;9417;16.484;102.872;2022-10-26T02:51:38;2.15;;;1.30;;
18574;SDS011;9417;16.484;102.872;2022-10-26T02:53:50;3.72;;;1.70;;
18574;SDS011;9417;16.484;102.872;2022-10-26T02:56:03;2.65;;;1.42;;
18574;SDS011;9417;16.484;102.872;2022-10-26T02:58:15;2.00;;;1.35;;
18574;SDS011;9417;16.484;102.872;2022-10-26T03:00:26;1.98;;;1.48;;
18574;SDS011;9417;16.484;102.872;2022-10-26T03:02:35;2.17;;;1.40;;
18574;SDS011;9417;16.484;102.872;2022-10-26T03:04:49;3.38;;;1.40;;
18574;SDS011;9417;16.484;102.872;2022-10-26T03:06:55;1.80;;;1.30;;
18574;SDS011;9417;16.484;102.872;2022-10-26T03:09:02;3.55;;;1.42;;
18574;SDS011;9417;16.484;102.872;2022-10-26T03:11:09;4.43;;;1.50;;
18574;SDS011;9417;16.484;102.872;2022-10-26T03:13:15;2.35;;;1.15;;
18574;SDS011;9417;16.484;102.872;2022-10-26T03:15:22;1.83;;;1.10;;
18574;SDS011;9417;16.484;102.872;2022-10-26T03:17:29;2.00;;;1.05;;
18574;SDS011;9417;16.484;102.872;2022-10-26T03:19:35;3.13;;;1.48;;
18574;SDS011;9417;16.484;102.872;2022-10-26T03:21:43;2.78;;;1.27;;
18574;SDS011;9417;16.484;102.872;2022-10-26T03:23:50;2.63;;;1.20;;
18574;SDS011;9417;16.484;102.872;2022-10-26T03:25:57;3.15;;;1.13;;
18574;SDS011;9417;16.484;102.872;2022-10-26T03:28:05;2.20;;;1.10;;
18574;SDS011;9417;16.484;102.872;2022-10-26T03:30:12;2.78;;;1.40;;
18574;SDS011;9417;16.484;102.872;2022-10-26T03:32:18;2.65;;;1.02;;
18574;SDS011;9417;16.484;102.872;2022-10-26T03:34:25;2.20;;;1.25;;
18574;SDS011;9417;16.484;102.872;2022-10-26T03:36:32;2.72;;;1.40;;
18574;SDS011;9417;16.484;102.872;2022-10-26T03:38:40;2.78;;;1.70;;
18574;SDS011;9417;16.484;102.872;2022-10-26T03:40:46;3.28;;;1.13;;
18574;SDS011;9417;16.484;102.872;2022-10-26T03:42:53;2.90;;;1.25;;
18574;SDS011;9417;16.484;102.872;2022-10-26T03:44:59;2.63;;;1.20;;
18574;SDS011;9417;16.484;102.872;2022-10-26T03:47:06;3.22;;;1.00;;
18574;SDS011;9417;16.484;102.872;2022-10-26T03:49:13;3.03;;;1.20;;
18574;SDS011;9417;16.484;102.872;2022-10-26T03:51:19;2.10;;;1.00;;
18574;SDS011;9417;16.484;102.872;2022-10-26T03:53:26;2.85;;;1.00;;
18574;SDS011;9417;16.484;102.872;2022-10-26T03:55:34;4.45;;;1.00;;
18574;SDS011;9417;16.484;102.872;2022-10-26T03:57:40;1.50;;;0.70;;
18574;SDS011;9417;16.484;102.872;2022-10-26T03:59:47;4.75;;;1.20;;
18574;SDS011;9417;16.484;102.872;2022-10-26T04:01:54;2.58;;;0.90;;
18574;SDS011;9417;16.484;102.872;2022-10-26T04:04:01;2.45;;;1.00;;
18574;SDS011;9417;16.484;102.872;2022-10-26T04:06:07;4.15;;;1.10;;
18574;SDS011;9417;16.484;102.872;2022-10-26T04:08:14;3.65;;;0.90;;
18574;SDS011;9417;16.484;102.872;2022-10-26T04:10:21;3.70;;;1.20;;
18574;SDS011;9417;16.484;102.872;2022-10-26T04:12:29;3.35;;;0.90;;
18574;SDS011;9417;16.484;102.872;2022-10-26T04:14:36;4.13;;;1.40;;
18574;SDS011;9417;16.484;102.872;2022-10-26T04:16:42;3.17;;;0.93;;
18574;SDS011;9417;16.484;102.872;2022-10-26T04:18:49;2.22;;;1.20;;
18574;SDS011;9417;16.484;102.872;2022-10-26T04:20:55;2.42;;;1.23;;
18574;SDS011;9417;16.484;102.872;2022-10-26T04:23:06;2.00;;;1.20;;
18574;SDS011;9417;16.484;102.872;2022-10-26T04:25:15;2.13;;;1.00;;
18574;SDS011;9417;16.484;102.872;2022-10-26T04:27:23;4.15;;;1.27;;
18574;SDS011;9417;16.484;102.872;2022-10-26T04:29:31;3.88;;;1.75;;
18574;SDS011;9417;16.484;102.872;2022-10-26T04:31:37;3.17;;;1.45;;
18574;SDS011;9417;16.484;102.872;2022-10-26T04:33:45;3.63;;;1.10;;
18574;SDS011;9417;16.484;102.872;2022-10-26T04:35:51;3.38;;;1.13;;
18574;SDS011;9417;16.484;102.872;2022-10-26T04:38:04;3.65;;;1.10;;
18574;SDS011;9417;16.484;102.872;2022-10-26T04:40:11;2.30;;;0.90;;
18574;SDS011;9417;16.484;102.872;2022-10-26T04:42:17;3.42;;;1.13;;
18574;SDS011;9417;16.484;102.872;2022-10-26T04:44:24;2.90;;;1.38;;
18574;SDS011;9417;16.484;102.872;2022-10-26T04:46:32;2.53;;;0.88;;
18574;SDS011;9417;16.484;102.872;2022-10-26T04:48:39;3.67;;;1.10;;
18574;SDS011;9417;16.484;102.872;2022-10-26T04:50:46;1.50;;;0.90;;
18574;SDS011;9417;16.484;102.872;2022-10-26T04:52:52;3.25;;;1.08;;
18574;SDS011;9417;16.484;102.872;2022-10-26T04:54:59;5.50;;;1.10;;
18574;SDS011;9417;16.484;102.872;2022-10-26T04:57:08;3.05;;;1.15;;
18574;SDS011;9417;16.484;102.872;2022-10-26T04:59:15;2.33;;;1.00;;
18574;SDS011;9417;16.484;102.872;2022-10-26T05:01:21;2.83;;;1.02;;
18574;SDS011;9417;16.484;102.872;2022-10-26T05:03:30;2.95;;;1.20;;
18574;SDS011;9417;16.484;102.872;2022-10-26T05:05:36;2.45;;;1.40;;
18574;SDS011;9417;16.484;102.872;2022-10-26T05:07:43;4.00;;;1.55;;
18574;SDS011;9417;16.484;102.872;2022-10-26T05:09:57;4.38;;;1.00;;
18574;SDS011;9417;16.484;102.872;2022-10-26T05:12:04;1.77;;;1.00;;
18574;SDS011;9417;16.484;102.872;2022-10-26T05:14:10;2.53;;;0.90;;
18574;SDS011;9417;16.484;102.872;2022-10-26T05:16:17;2.13;;;1.02;;
18574;SDS011;9417;16.484;102.872;2022-10-26T05:18:23;4.05;;;1.30;;
18574;SDS011;9417;16.484;102.872;2022-10-26T05:20:32;2.15;;;1.20;;
18574;SDS011;9417;16.484;102.872;2022-10-26T05:22:40;4.28;;;1.25;;
18574;SDS011;9417;16.484;102.872;2022-10-26T05:24:47;3.03;;;1.33;;
18574;SDS011;9417;16.484;102.872;2022-10-26T05:26:53;2.83;;;1.02;;
18574;SDS011;9417;16.484;102.872;2022-10-26T05:29:00;3.67;;;1.10;;
18574;SDS011;9417;16.484;102.872;2022-10-26T05:31:06;1.75;;;0.93;;
18574;SDS011;9417;16.484;102.872;2022-10-26T05:33:13;3.08;;;1.10;;
18574;SDS011;9417;16.484;102.872;2022-10-26T05:35:20;2.95;;;1.00;;
18574;SDS011;9417;16.484;102.872;2022-10-26T05:37:28;3.38;;;1.02;;
18574;SDS011;9417;16.484;102.872;2022-10-26T05:39:35;3.38;;;1.25;;
18574;SDS011;9417;16.484;102.872;2022-10-26T05:41:41;2.95;;;1.10;;
18574;SDS011;9417;16.484;102.872;2022-10-26T05:43:48;2.17;;;1.33;;
18574;SDS011;9417;16.484;102.872;2022-10-26T05:45:55;4.82;;;1.33;;
18574;SDS011;9417;16.484;102.872;2022-10-26T05:48:01;3.05;;;1.10;;
18574;SDS011;9417;16.484;102.872;2022-10-26T05:50:08;2.53;;;1.10;;
18574;SDS011;9417;16.484;102.872;2022-10-26T05:52:16;3.20;;;1.10;;
18574;SDS011;9417;16.484;102.872;2022-10-26T05:54:24;1.75;;;1.00;;
18574;SDS011;9417;16.484;102.872;2022-10-26T05:56:34;3.88;;;1.30;;
18574;SDS011;9417;16.484;102.872;2022-10-26T05:58:42;2.38;;;1.27;;
18574;SDS011;9417;16.484;102.872;2022-10-26T06:00:55;4.25;;;1.42;;
18574;SDS011;9417;16.484;102.872;2022-10-26T06:03:16;4.32;;;1.30;;
18574;SDS011;9417;16.484;102.872;2022-10-26T06:05:30;3.22;;;1.05;;
18574;SDS011;9417;16.484;102.872;2022-10-26T06:07:42;5.35;;;2.20;;
18574;SDS011;9417;16.484;102.872;2022-10-26T06:09:51;6.35;;;3.00;;
18574;SDS011;9417;16.484;102.872;2022-10-26T06:11:58;9.50;;;2.47;;
18574;SDS011;9417;16.484;102.872;2022-10-26T06:14:05;2.65;;;1.73;;
18574;SDS011;9417;16.484;102.872;2022-10-26T06:16:20;4.88;;;1.50;;
18574;SDS011;9417;16.484;102.872;2022-10-26T06:18:36;11.95;;;5.07;;
18574;SDS011;9417;16.484;102.872;2022-10-26T06:20:50;10.80;;;4.85;;
18574;SDS011;9417;16.484;102.872;2022-10-26T06:23:08;9.90;;;4.28;;
18574;SDS011;9417;16.484;102.872;2022-10-26T06:25:32;8.95;;;4.30;;
18574;SDS011;9417;16.484;102.872;2022-10-26T06:27:52;3.30;;;1.70;;
18574;SDS011;9417;16.484;102.872;2022-10-26T06:30:06;3.25;;;1.83;;
18574;SDS011;9417;16.484;102.872;2022-10-26T06:32:14;3.10;;;1.10;;
18574;SDS011;9417;16.484;102.872;2022-10-26T06:34:22;2.70;;;1.40;;
18574;SDS011;9417;16.484;102.872;2022-10-26T06:36:31;5.20;;;2.00;;
18574;SDS011;9417;16.484;102.872;2022-10-26T06:38:38;4.40;;;1.70;;
18574;SDS011;9417;16.484;102.872;2022-10-26T06:40:50;3.88;;;1.55;;
18574;SDS011;9417;16.484;102.872;2022-10-26T06:45:10;4.05;;;1.20;;
18574;SDS011;9417;16.484;102.872;2022-10-26T06:47:19;4.93;;;1.83;;
18574;SDS011;9417;16.484;102.872;2022-10-26T06:49:30;6.05;;;2.03;;
18574;SDS011;9417;16.484;102.872;2022-10-26T06:51:41;5.85;;;2.75;;
18574;SDS011;9417;16.484;102.872;2022-10-26T06:53:52;10.07;;;4.10;;
18574;SDS011;9417;16.484;102.872;2022-10-26T06:56:05;8.88;;;2.38;;
18574;SDS011;9417;16.484;102.872;2022-10-26T06:58:16;4.95;;;2.13;;
18574;SDS011;9417;16.484;102.872;2022-10-26T07:00:24;5.53;;;2.25;;
18574;SDS011;9417;16.484;102.872;2022-10-26T07:02:36;4.75;;;1.80;;
18574;SDS011;9417;16.484;102.872;2022-10-26T07:04:43;3.63;;;1.55;;
18574;SDS011;9417;16.484;102.872;2022-10-26T07:06:50;3.00;;;1.33;;
18574;SDS011;9417;16.484;102.872;2022-10-26T07:08:59;4.32;;;1.73;;
18574;SDS011;9417;16.484;102.872;2022-10-26T07:11:07;2.45;;;1.40;;
18574;SDS011;9417;16.484;102.872;2022-10-26T07:13:14;4.57;;;1.50;;
18574;SDS011;9417;16.484;102.872;2022-10-26T07:15:20;3.80;;;1.50;;
18574;SDS011;9417;16.484;102.872;2022-10-26T07:17:27;3.42;;;1.60;;
18574;SDS011;9417;16.484;102.872;2022-10-26T07:19:34;3.35;;;1.35;;
18574;SDS011;9417;16.484;102.872;2022-10-26T07:21:42;2.97;;;1.50;;
18574;SDS011;9417;16.484;102.872;2022-10-26T07:23:49;3.70;;;1.40;;
18574;SDS011;9417;16.484;102.872;2022-10-26T07:25:59;2.53;;;1.42;;
18574;SDS011;9417;16.484;102.872;2022-10-26T07:28:07;5.97;;;1.80;;
18574;SDS011;9417;16.484;102.872;2022-10-26T07:30:14;4.65;;;1.77;;
18574;SDS011;9417;16.484;102.872;2022-10-26T07:32:21;4.07;;;1.40;;
18574;SDS011;9417;16.484;102.872;2022-10-26T07:34:28;4.07;;;1.63;;
18574;SDS011;9417;16.484;102.872;2022-10-26T07:36:34;4.45;;;1.10;;
18574;SDS011;9417;16.484;102.872;2022-10-26T07:38:41;3.47;;;1.40;;
18574;SDS011;9417;16.484;102.872;2022-10-26T07:40:48;4.82;;;1.23;;
18574;SDS011;9417;16.484;102.872;2022-10-26T07:42:56;5.22;;;1.40;;
18574;SDS011;9417;16.484;102.872;2022-10-26T07:45:06;5.70;;;1.80;;
18574;SDS011;9417;16.484;102.872;2022-10-26T07:47:13;2.97;;;1.55;;
18574;SDS011;9417;16.484;102.872;2022-10-26T07:49:20;3.55;;;1.90;;
18574;SDS011;9417;16.484;102.872;2022-10-26T07:51:29;3.50;;;1.20;;
18574;SDS011;9417;16.484;102.872;2022-10-26T07:53:35;2.17;;;1.15;;
18574;SDS011;9417;16.484;102.872;2022-10-26T07:55:42;2.83;;;1.30;;
18574;SDS011;9417;16.484;102.872;2022-10-26T07:57:56;3.17;;;1.30;;
18574;SDS011;9417;16.484;102.872;2022-10-26T08:00:03;4.10;;;1.20;;
18574;SDS011;9417;16.484;102.872;2022-10-26T08:02:13;4.97;;;1.10;;
18574;SDS011;9417;16.484;102.872;2022-10-26T08:04:20;5.93;;;1.45;;
18574;SDS011;9417;16.484;102.872;2022-10-26T08:06:27;2.88;;;1.25;;
18574;SDS011;9417;16.484;102.872;2022-10-26T08:08:33;1.88;;;0.80;;
18574;SDS011;9417;16.484;102.872;2022-10-26T08:10:44;2.30;;;1.13;;
18574;SDS011;9417;16.484;102.872;2022-10-26T08:12:51;2.65;;;1.13;;
18574;SDS011;9417;16.484;102.872;2022-10-26T08:14:58;2.80;;;1.20;;
18574;SDS011;9417;16.484;102.872;2022-10-26T08:17:06;2.67;;;0.93;;
18574;SDS011;9417;16.484;102.872;2022-10-26T08:19:15;2.80;;;1.30;;
18574;SDS011;9417;16.484;102.872;2022-10-26T08:21:22;4.93;;;1.30;;
18574;SDS011;9417;16.484;102.872;2022-10-26T08:23:40;2.20;;;1.20;;
18574;SDS011;9417;16.484;102.872;2022-10-26T08:25:47;3.83;;;1.58;;
18574;SDS011;9417;16.484;102.872;2022-10-26T08:27:54;3.53;;;1.30;;
18574;SDS011;9417;16.484;102.872;2022-10-26T08:30:04;3.28;;;1.20;;
18574;SDS011;9417;16.484;102.872;2022-10-26T08:32:13;3.80;;;1.40;;
18574;SDS011;9417;16.484;102.872;2022-10-26T08:34:20;5.22;;;1.55;;
18574;SDS011;9417;16.484;102.872;2022-10-26T08:36:26;3.45;;;1.23;;
18574;SDS011;9417;16.484;102.872;2022-10-26T08:38:33;3.97;;;1.10;;
18574;SDS011;9417;16.484;102.872;2022-10-26T08:40:41;4.93;;;1.45;;
18574;SDS011;9417;16.484;102.872;2022-10-26T08:42:48;3.10;;;1.42;;
18574;SDS011;9417;16.484;102.872;2022-10-26T08:44:58;4.90;;;1.42;;
18574;SDS011;9417;16.484;102.872;2022-10-26T08:47:09;2.72;;;1.23;;
18574;SDS011;9417;16.484;102.872;2022-10-26T08:49:22;5.05;;;1.27;;
18574;SDS011;9417;16.484;102.872;2022-10-26T08:51:31;7.03;;;2.28;;
18574;SDS011;9417;16.484;102.872;2022-10-26T08:53:41;5.30;;;2.00;;
18574;SDS011;9417;16.484;102.872;2022-10-26T08:55:53;3.38;;;2.00;;
18574;SDS011;9417;16.484;102.872;2022-10-26T08:58:04;3.53;;;2.10;;
18574;SDS011;9417;16.484;102.872;2022-10-26T09:00:16;4.87;;;2.00;;
18574;SDS011;9417;16.484;102.872;2022-10-26T09:02:26;7.07;;;2.72;;
18574;SDS011;9417;16.484;102.872;2022-10-26T09:04:33;4.90;;;2.05;;
18574;SDS011;9417;16.484;102.872;2022-10-26T09:06:42;6.05;;;1.90;;
18574;SDS011;9417;16.484;102.872;2022-10-26T09:09:01;10.80;;;2.67;;
18574;SDS011;9417;16.484;102.872;2022-10-26T09:13:24;10.65;;;2.38;;
18574;SDS011;9417;16.484;102.872;2022-10-26T09:15:42;5.20;;;2.10;;
18574;SDS011;9417;16.484;102.872;2022-10-26T09:18:04;10.63;;;2.83;;
18574;SDS011;9417;16.484;102.872;2022-10-26T09:23:03;6.38;;;2.10;;
18574;SDS011;9417;16.484;102.872;2022-10-26T09:25:20;6.70;;;2.13;;
18574;SDS011;9417;16.484;102.872;2022-10-26T09:27:28;4.30;;;1.80;;
18574;SDS011;9417;16.484;102.872;2022-10-26T09:29:41;5.40;;;1.98;;
18574;SDS011;9417;16.484;102.872;2022-10-26T09:31:48;5.70;;;1.95;;
18574;SDS011;9417;16.484;102.872;2022-10-26T09:33:57;5.70;;;1.70;;
18574;SDS011;9417;16.484;102.872;2022-10-26T09:36:09;5.70;;;2.03;;
18574;SDS011;9417;16.484;102.872;2022-10-26T09:38:23;5.25;;;2.20;;
18574;SDS011;9417;16.484;102.872;2022-10-26T09:40:35;7.18;;;2.72;;
18574;SDS011;9417;16.484;102.872;2022-10-26T09:42:48;7.57;;;2.47;;
18574;SDS011;9417;16.484;102.872;2022-10-26T09:45:02;6.88;;;2.15;;
18574;SDS011;9417;16.484;102.872;2022-10-26T09:47:16;5.20;;;2.15;;
18574;SDS011;9417;16.484;102.872;2022-10-26T09:49:38;5.50;;;2.30;;
18574;SDS011;9417;16.484;102.872;2022-10-26T09:51:50;4.93;;;2.20;;
18574;SDS011;9417;16.484;102.872;2022-10-26T09:53:57;5.60;;;2.25;;
18574;SDS011;9417;16.484;102.872;2022-10-26T09:56:05;6.28;;;2.35;;
18574;SDS011;9417;16.484;102.872;2022-10-26T09:58:17;5.10;;;2.38;;
18574;SDS011;9417;16.484;102.872;2022-10-26T10:00:28;8.00;;;2.50;;
18574;SDS011;9417;16.484;102.872;2022-10-26T10:04:49;5.40;;;2.50;;
18574;SDS011;9417;16.484;102.872;2022-10-26T10:07:10;5.30;;;2.60;;
18574;SDS011;9417;16.484;102.872;2022-10-26T10:09:18;6.20;;;2.92;;
18574;SDS011;9417;16.484;102.872;2022-10-26T10:11:25;7.82;;;3.00;;
18574;SDS011;9417;16.484;102.872;2022-10-26T10:13:43;6.53;;;2.80;;
18574;SDS011;9417;16.484;102.872;2022-10-26T10:15:51;6.95;;;3.65;;
18574;SDS011;9417;16.484;102.872;2022-10-26T10:17:59;6.88;;;3.22;;
18574;SDS011;9417;16.484;102.872;2022-10-26T10:20:08;7.03;;;3.28;;
18574;SDS011;9417;16.484;102.872;2022-10-26T10:22:17;7.07;;;3.58;;
18574;SDS011;9417;16.484;102.872;2022-10-26T10:24:26;5.55;;;3.10;;
18574;SDS011;9417;16.484;102.872;2022-10-26T10:26:37;7.18;;;3.45;;
18574;SDS011;9417;16.484;102.872;2022-10-26T10:29:01;5.75;;;3.35;;
18574;SDS011;9417;16.484;102.872;2022-10-26T10:31:20;9.23;;;3.25;;
18574;SDS011;9417;16.484;102.872;2022-10-26T10:33:34;9.20;;;3.83;;
18574;SDS011;9417;16.484;102.872;2022-10-26T10:35:46;7.78;;;3.90;;
18574;SDS011;9417;16.484;102.872;2022-10-26T10:37:54;8.40;;;4.15;;
18574;SDS011;9417;16.484;102.872;2022-10-26T10:40:02;7.60;;;3.83;;
18574;SDS011;9417;16.484;102.872;2022-10-26T10:42:15;7.40;;;4.07;;
18574;SDS011;9417;16.484;102.872;2022-10-26T10:44:25;6.93;;;4.00;;
18574;SDS011;9417;16.484;102.872;2022-10-26T10:46:34;6.03;;;3.92;;
18574;SDS011;9417;16.484;102.872;2022-10-26T10:48:41;9.52;;;5.32;;
18574;SDS011;9417;16.484;102.872;2022-10-26T10:50:54;10.35;;;4.70;;
18574;SDS011;9417;16.484;102.872;2022-10-26T10:53:12;8.45;;;4.35;;
18574;SDS011;9417;16.484;102.872;2022-10-26T10:55:21;8.32;;;4.53;;
18574;SDS011;9417;16.484;102.872;2022-10-26T10:57:29;8.68;;;4.10;;
18574;SDS011;9417;16.484;102.872;2022-10-26T10:59:52;7.68;;;4.10;;
18574;SDS011;9417;16.484;102.872;2022-10-26T11:02:16;9.30;;;4.28;;
18574;SDS011;9417;16.484;102.872;2022-10-26T11:04:51;9.02;;;4.18;;
18574;SDS011;9417;16.484;102.872;2022-10-26T11:07:10;8.30;;;4.53;;
18574;SDS011;9417;16.484;102.872;2022-10-26T11:09:19;7.90;;;4.55;;
18574;SDS011;9417;16.484;102.872;2022-10-26T11:11:32;7.90;;;4.82;;
18574;SDS011;9417;16.484;102.872;2022-10-26T11:13:51;8.82;;;4.50;;
18574;SDS011;9417;16.484;102.872;2022-10-26T11:16:01;6.03;;;4.03;;
18574;SDS011;9417;16.484;102.872;2022-10-26T11:18:12;10.20;;;4.63;;
18574;SDS011;9417;16.484;102.872;2022-10-26T11:20:23;7.82;;;4.45;;
18574;SDS011;9417;16.484;102.872;2022-10-26T11:22:34;8.50;;;4.40;;
18574;SDS011;9417;16.484;102.872;2022-10-26T11:24:46;7.88;;;5.30;;
18574;SDS011;9417;16.484;102.872;2022-10-26T11:26:59;7.20;;;4.70;;
18574;SDS011;9417;16.484;102.872;2022-10-26T11:29:15;8.27;;;4.72;;
18574;SDS011;9417;16.484;102.872;2022-10-26T11:31:30;6.80;;;4.40;;
18574;SDS011;9417;16.484;102.872;2022-10-26T11:33:41;9.57;;;4.75;;
18574;SDS011;9417;16.484;102.872;2022-10-26T11:35:53;9.37;;;4.33;;
18574;SDS011;9417;16.484;102.872;2022-10-26T11:40:23;9.18;;;4.97;;
18574;SDS011;9417;16.484;102.872;2022-10-26T11:42:34;12.43;;;5.18;;
18574;SDS011;9417;16.484;102.872;2022-10-26T11:44:47;9.43;;;4.97;;
18574;SDS011;9417;16.484;102.872;2022-10-26T11:47:00;7.65;;;4.60;;
18574;SDS011;9417;16.484;102.872;2022-10-26T11:49:10;7.45;;;4.68;;
18574;SDS011;9417;16.484;102.872;2022-10-26T11:51:32;7.82;;;4.53;;
18574;SDS011;9417;16.484;102.872;2022-10-26T11:53:45;8.85;;;5.00;;
18574;SDS011;9417;16.484;102.872;2022-10-26T11:55:53;10.30;;;4.47;;
18574;SDS011;9417;16.484;102.872;2022-10-26T11:58:00;10.63;;;4.53;;
18574;SDS011;9417;16.484;102.872;2022-10-26T12:00:13;10.88;;;4.85;;
18574;SDS011;9417;16.484;102.872;2022-10-26T12:02:22;9.27;;;4.50;;
18574;SDS011;9417;16.484;102.872;2022-10-26T12:04:30;7.18;;;4.32;;
18574;SDS011;9417;16.484;102.872;2022-10-26T12:06:40;8.95;;;4.00;;
18574;SDS011;9417;16.484;102.872;2022-10-26T12:08:49;8.15;;;4.13;;
18574;SDS011;9417;16.484;102.872;2022-10-26T12:11:04;6.90;;;4.28;;
18574;SDS011;9417;16.484;102.872;2022-10-26T12:13:20;7.85;;;4.60;;
18574;SDS011;9417;16.484;102.872;2022-10-26T12:15:34;8.95;;;5.13;;
18574;SDS011;9417;16.484;102.872;2022-10-26T12:18:08;9.30;;;4.30;;
18574;SDS011;9417;16.484;102.872;2022-10-26T12:20:39;7.90;;;4.50;;
18574;SDS011;9417;16.484;102.872;2022-10-26T12:23:04;7.63;;;4.47;;
18574;SDS011;9417;16.484;102.872;2022-10-26T12:25:31;9.50;;;4.32;;
18574;SDS011;9417;16.484;102.872;2022-10-26T12:27:48;6.13;;;4.22;;
18574;SDS011;9417;16.484;102.872;2022-10-26T12:34:59;8.40;;;4.38;;
18574;SDS011;9417;16.484;102.872;2022-10-26T12:37:20;7.05;;;4.47;;
18574;SDS011;9417;16.484;102.872;2022-10-26T12:39:33;8.02;;;4.85;;
18574;SDS011;9417;16.484;102.872;2022-10-26T12:41:43;7.32;;;4.90;;
18574;SDS011;9417;16.484;102.872;2022-10-26T12:44:02;8.48;;;4.80;;
18574;SDS011;9417;16.484;102.872;2022-10-26T12:46:39;10.45;;;5.05;;
18574;SDS011;9417;16.484;102.872;2022-10-26T12:48:50;6.60;;;4.25;;
18574;SDS011;9417;16.484;102.872;2022-10-26T12:51:10;7.00;;;4.97;;
18574;SDS011;9417;16.484;102.872;2022-10-26T12:53:46;8.55;;;5.57;;
18574;SDS011;9417;16.484;102.872;2022-10-26T12:56:03;7.30;;;5.13;;
18574;SDS011;9417;16.484;102.872;2022-10-26T12:58:40;9.10;;;5.38;;
18574;SDS011;9417;16.484;102.872;2022-10-26T13:01:29;9.68;;;5.65;;
18574;SDS011;9417;16.484;102.872;2022-10-26T13:04:18;8.23;;;5.13;;
18574;SDS011;9417;16.484;102.872;2022-10-26T13:06:53;9.20;;;5.45;;
18574;SDS011;9417;16.484;102.872;2022-10-26T13:09:18;11.63;;;6.00;;
18574;SDS011;9417;16.484;102.872;2022-10-26T13:11:27;9.75;;;5.15;;
18574;SDS011;9417;16.484;102.872;2022-10-26T13:13:38;8.73;;;4.93;;
18574;SDS011;9417;16.484;102.872;2022-10-26T13:15:51;12.60;;;5.57;;
18574;SDS011;9417;16.484;102.872;2022-10-26T13:18:00;8.85;;;4.80;;